sensor_id;sensor_type;location;lat;lon;timestamp;P1;durP1;ratioP1;P2;durP2;ratioP2
13999;SDS011;7075;53.574;10.054;2023-07-29T00:00:42;10.23;;;5.77;;
13999;SDS011;7075;53.574;10.054;2023-07-29T00:03:08;7.17;;;5.40;;
13999;SDS011;7075;53.574;10.054;2023-07-29T00:05:34;6.63;;;5.67;;
13999;SDS011;7075;53.574;10.054;2023-07-29T00:08:00;7.67;;;6.20;;
13999;SDS011;7075;53.574;10.054;2023-07-29T00:10:26;6.17;;;5.23;;
13999;SDS011;7075;53.574;10.054;2023-07-29T00:12:52;7.53;;;5.70;;
13999;SDS011;7075;53.574;10.054;2023-07-29T00:15:19;7.70;;;5.93;;
13999;SDS011;7075;53.574;10.054;2023-07-29T00:17:44;6.50;;;5.80;;
13999;SDS011;7075;53.574;10.054;2023-07-29T00:20:10;7.20;;;5.60;;
13999;SDS011;7075;53.574;10.054;2023-07-29T00:22:36;8.00;;;6.23;;
13999;SDS011;7075;53.574;10.054;2023-07-29T00:25:01;7.00;;;5.43;;
13999;SDS011;7075;53.574;10.054;2023-07-29T00:27:27;9.83;;;6.07;;
13999;SDS011;7075;53.574;10.054;2023-07-29T00:29:52;9.20;;;5.80;;
13999;SDS011;7075;53.574;10.054;2023-07-29T00:32:18;8.97;;;6.20;;
13999;SDS011;7075;53.574;10.054;2023-07-29T00:34:44;9.83;;;5.50;;
13999;SDS011;7075;53.574;10.054;2023-07-29T00:37:09;6.87;;;5.33;;
13999;SDS011;7075;53.574;10.054;2023-07-29T00:39:35;9.93;;;4.77;;
13999;SDS011;7075;53.574;10.054;2023-07-29T00:42:06;8.57;;;5.40;;
13999;SDS011;7075;53.574;10.054;2023-07-29T00:44:32;7.13;;;4.90;;
13999;SDS011;7075;53.574;10.054;2023-07-29T00:46:58;5.83;;;4.97;;
13999;SDS011;7075;53.574;10.054;2023-07-29T00:49:27;7.00;;;5.10;;
13999;SDS011;7075;53.574;10.054;2023-07-29T00:51:54;5.80;;;4.93;;
13999;SDS011;7075;53.574;10.054;2023-07-29T00:54:20;6.07;;;4.83;;
13999;SDS011;7075;53.574;10.054;2023-07-29T00:56:45;6.13;;;4.60;;
13999;SDS011;7075;53.574;10.054;2023-07-29T00:59:11;6.13;;;4.60;;
13999;SDS011;7075;53.574;10.054;2023-07-29T01:01:39;7.83;;;4.40;;
13999;SDS011;7075;53.574;10.054;2023-07-29T01:04:04;6.83;;;4.40;;
13999;SDS011;7075;53.574;10.054;2023-07-29T01:09:43;4.80;;;3.73;;
13999;SDS011;7075;53.574;10.054;2023-07-29T01:12:33;8.07;;;4.00;;
13999;SDS011;7075;53.574;10.054;2023-07-29T01:15:19;4.27;;;3.87;;
13999;SDS011;7075;53.574;10.054;2023-07-29T01:17:55;4.63;;;3.57;;
13999;SDS011;7075;53.574;10.054;2023-07-29T01:20:24;4.50;;;3.83;;
13999;SDS011;7075;53.574;10.054;2023-07-29T01:22:51;4.40;;;3.17;;
13999;SDS011;7075;53.574;10.054;2023-07-29T01:25:16;4.07;;;3.67;;
13999;SDS011;7075;53.574;10.054;2023-07-29T01:27:43;4.20;;;3.80;;
13999;SDS011;7075;53.574;10.054;2023-07-29T01:30:10;4.33;;;3.87;;
13999;SDS011;7075;53.574;10.054;2023-07-29T01:38:13;3.70;;;3.30;;
13999;SDS011;7075;53.574;10.054;2023-07-29T01:40:43;4.03;;;3.63;;
13999;SDS011;7075;53.574;10.054;2023-07-29T01:43:09;4.40;;;3.90;;
13999;SDS011;7075;53.574;10.054;2023-07-29T01:45:35;3.73;;;3.30;;
13999;SDS011;7075;53.574;10.054;2023-07-29T01:48:07;5.40;;;4.00;;
13999;SDS011;7075;53.574;10.054;2023-07-29T01:50:33;4.03;;;3.73;;
13999;SDS011;7075;53.574;10.054;2023-07-29T01:53:08;4.70;;;4.30;;
13999;SDS011;7075;53.574;10.054;2023-07-29T01:55:34;4.73;;;3.93;;
13999;SDS011;7075;53.574;10.054;2023-07-29T01:57:59;4.10;;;3.80;;
13999;SDS011;7075;53.574;10.054;2023-07-29T02:00:25;4.93;;;4.40;;
13999;SDS011;7075;53.574;10.054;2023-07-29T02:02:51;5.73;;;4.77;;
13999;SDS011;7075;53.574;10.054;2023-07-29T02:05:16;5.10;;;4.60;;
13999;SDS011;7075;53.574;10.054;2023-07-29T02:07:42;4.90;;;4.40;;
13999;SDS011;7075;53.574;10.054;2023-07-29T02:10:08;5.77;;;4.23;;
13999;SDS011;7075;53.574;10.054;2023-07-29T02:12:34;5.47;;;4.93;;
13999;SDS011;7075;53.574;10.054;2023-07-29T02:14:59;6.13;;;4.73;;
13999;SDS011;7075;53.574;10.054;2023-07-29T02:17:25;5.10;;;4.60;;
13999;SDS011;7075;53.574;10.054;2023-07-29T02:19:51;5.10;;;4.60;;
13999;SDS011;7075;53.574;10.054;2023-07-29T02:22:17;5.47;;;4.87;;
13999;SDS011;7075;53.574;10.054;2023-07-29T02:24:43;5.10;;;4.60;;
13999;SDS011;7075;53.574;10.054;2023-07-29T02:27:09;4.90;;;4.43;;
13999;SDS011;7075;53.574;10.054;2023-07-29T02:29:35;6.73;;;5.00;;
13999;SDS011;7075;53.574;10.054;2023-07-29T02:32:01;4.50;;;4.10;;
13999;SDS011;7075;53.574;10.054;2023-07-29T02:34:27;4.47;;;4.07;;
13999;SDS011;7075;53.574;10.054;2023-07-29T02:36:52;5.70;;;4.93;;
13999;SDS011;7075;53.574;10.054;2023-07-29T02:39:18;5.43;;;4.70;;
13999;SDS011;7075;53.574;10.054;2023-07-29T02:41:44;5.13;;;4.63;;
13999;SDS011;7075;53.574;10.054;2023-07-29T02:44:09;5.60;;;4.93;;
13999;SDS011;7075;53.574;10.054;2023-07-29T02:46:35;4.97;;;3.97;;
13999;SDS011;7075;53.574;10.054;2023-07-29T02:49:01;4.83;;;4.40;;
13999;SDS011;7075;53.574;10.054;2023-07-29T02:51:27;5.10;;;4.67;;
13999;SDS011;7075;53.574;10.054;2023-07-29T02:53:53;8.03;;;5.40;;
13999;SDS011;7075;53.574;10.054;2023-07-29T02:56:19;4.30;;;3.90;;
13999;SDS011;7075;53.574;10.054;2023-07-29T02:58:44;4.47;;;4.13;;
13999;SDS011;7075;53.574;10.054;2023-07-29T03:01:10;5.13;;;4.40;;
13999;SDS011;7075;53.574;10.054;2023-07-29T03:03:36;7.57;;;5.63;;
13999;SDS011;7075;53.574;10.054;2023-07-29T03:06:02;5.73;;;5.23;;
13999;SDS011;7075;53.574;10.054;2023-07-29T03:08:29;9.00;;;5.03;;
13999;SDS011;7075;53.574;10.054;2023-07-29T03:10:55;5.60;;;5.10;;
13999;SDS011;7075;53.574;10.054;2023-07-29T03:13:21;6.77;;;5.37;;
13999;SDS011;7075;53.574;10.054;2023-07-29T03:15:47;7.20;;;6.03;;
13999;SDS011;7075;53.574;10.054;2023-07-29T03:18:12;6.80;;;6.20;;
13999;SDS011;7075;53.574;10.054;2023-07-29T03:20:38;5.17;;;4.67;;
13999;SDS011;7075;53.574;10.054;2023-07-29T03:23:04;7.33;;;6.07;;
13999;SDS011;7075;53.574;10.054;2023-07-29T03:25:29;6.93;;;6.23;;
13999;SDS011;7075;53.574;10.054;2023-07-29T03:27:55;6.77;;;5.87;;
13999;SDS011;7075;53.574;10.054;2023-07-29T03:30:21;6.80;;;6.03;;
13999;SDS011;7075;53.574;10.054;2023-07-29T03:32:47;6.00;;;5.40;;
13999;SDS011;7075;53.574;10.054;2023-07-29T03:35:14;6.40;;;5.80;;
13999;SDS011;7075;53.574;10.054;2023-07-29T03:37:39;6.60;;;5.90;;
13999;SDS011;7075;53.574;10.054;2023-07-29T03:40:06;6.63;;;6.03;;
13999;SDS011;7075;53.574;10.054;2023-07-29T03:42:32;7.87;;;7.07;;
13999;SDS011;7075;53.574;10.054;2023-07-29T03:48:20;12.03;;;6.67;;
13999;SDS011;7075;53.574;10.054;2023-07-29T03:50:45;8.27;;;6.23;;
13999;SDS011;7075;53.574;10.054;2023-07-29T03:53:11;7.53;;;6.73;;
13999;SDS011;7075;53.574;10.054;2023-07-29T03:55:36;8.40;;;7.40;;
13999;SDS011;7075;53.574;10.054;2023-07-29T03:58:02;7.70;;;6.73;;
13999;SDS011;7075;53.574;10.054;2023-07-29T04:00:27;9.60;;;8.70;;
13999;SDS011;7075;53.574;10.054;2023-07-29T04:02:53;10.73;;;8.80;;
13999;SDS011;7075;53.574;10.054;2023-07-29T04:05:19;12.50;;;10.00;;
13999;SDS011;7075;53.574;10.054;2023-07-29T04:07:44;9.80;;;8.90;;
13999;SDS011;7075;53.574;10.054;2023-07-29T04:10:10;12.53;;;9.87;;
13999;SDS011;7075;53.574;10.054;2023-07-29T04:12:37;13.53;;;11.33;;
13999;SDS011;7075;53.574;10.054;2023-07-29T04:15:03;19.13;;;12.70;;
13999;SDS011;7075;53.574;10.054;2023-07-29T04:17:29;13.50;;;12.10;;
13999;SDS011;7075;53.574;10.054;2023-07-29T04:19:54;14.00;;;12.47;;
13999;SDS011;7075;53.574;10.054;2023-07-29T04:22:20;12.97;;;11.77;;
13999;SDS011;7075;53.574;10.054;2023-07-29T04:24:46;13.20;;;11.83;;
13999;SDS011;7075;53.574;10.054;2023-07-29T04:27:11;14.23;;;11.97;;
13999;SDS011;7075;53.574;10.054;2023-07-29T04:29:37;12.67;;;11.37;;
13999;SDS011;7075;53.574;10.054;2023-07-29T04:32:03;14.90;;;12.47;;
13999;SDS011;7075;53.574;10.054;2023-07-29T04:34:29;13.20;;;11.43;;
13999;SDS011;7075;53.574;10.054;2023-07-29T04:36:55;15.13;;;12.50;;
13999;SDS011;7075;53.574;10.054;2023-07-29T04:39:20;15.60;;;13.97;;
13999;SDS011;7075;53.574;10.054;2023-07-29T04:41:46;15.60;;;13.37;;
13999;SDS011;7075;53.574;10.054;2023-07-29T04:44:11;18.10;;;15.87;;
13999;SDS011;7075;53.574;10.054;2023-07-29T04:46:37;17.40;;;15.57;;
13999;SDS011;7075;53.574;10.054;2023-07-29T04:49:03;18.53;;;16.50;;
13999;SDS011;7075;53.574;10.054;2023-07-29T04:51:29;26.37;;;19.23;;
13999;SDS011;7075;53.574;10.054;2023-07-29T04:53:59;21.10;;;18.80;;
13999;SDS011;7075;53.574;10.054;2023-07-29T04:56:25;20.27;;;18.20;;
13999;SDS011;7075;53.574;10.054;2023-07-29T04:58:51;17.87;;;15.57;;
13999;SDS011;7075;53.574;10.054;2023-07-29T05:01:20;20.43;;;18.13;;
13999;SDS011;7075;53.574;10.054;2023-07-29T05:03:47;21.10;;;18.80;;
13999;SDS011;7075;53.574;10.054;2023-07-29T05:06:14;20.80;;;18.60;;
13999;SDS011;7075;53.574;10.054;2023-07-29T05:08:39;22.93;;;19.63;;
13999;SDS011;7075;53.574;10.054;2023-07-29T05:11:05;26.03;;;20.03;;
13999;SDS011;7075;53.574;10.054;2023-07-29T05:13:32;21.50;;;19.30;;
13999;SDS011;7075;53.574;10.054;2023-07-29T05:15:57;21.90;;;18.93;;
13999;SDS011;7075;53.574;10.054;2023-07-29T05:18:23;23.50;;;21.07;;
13999;SDS011;7075;53.574;10.054;2023-07-29T05:20:49;27.67;;;22.00;;
13999;SDS011;7075;53.574;10.054;2023-07-29T05:23:14;22.23;;;19.07;;
13999;SDS011;7075;53.574;10.054;2023-07-29T05:25:40;27.73;;;22.50;;
13999;SDS011;7075;53.574;10.054;2023-07-29T05:28:06;32.50;;;26.17;;
13999;SDS011;7075;53.574;10.054;2023-07-29T05:30:34;28.87;;;25.53;;
13999;SDS011;7075;53.574;10.054;2023-07-29T05:33:03;27.33;;;24.43;;
13999;SDS011;7075;53.574;10.054;2023-07-29T05:35:30;30.83;;;25.63;;
13999;SDS011;7075;53.574;10.054;2023-07-29T05:37:57;26.63;;;23.77;;
13999;SDS011;7075;53.574;10.054;2023-07-29T05:40:23;28.07;;;25.03;;
13999;SDS011;7075;53.574;10.054;2023-07-29T05:42:50;28.87;;;25.77;;
13999;SDS011;7075;53.574;10.054;2023-07-29T05:45:17;30.93;;;25.30;;
13999;SDS011;7075;53.574;10.054;2023-07-29T05:47:44;27.43;;;24.53;;
13999;SDS011;7075;53.574;10.054;2023-07-29T05:50:11;30.10;;;25.33;;
13999;SDS011;7075;53.574;10.054;2023-07-29T05:52:37;30.30;;;26.83;;
13999;SDS011;7075;53.574;10.054;2023-07-29T05:55:04;31.17;;;25.83;;
13999;SDS011;7075;53.574;10.054;2023-07-29T05:57:30;29.33;;;25.60;;
13999;SDS011;7075;53.574;10.054;2023-07-29T05:59:57;29.27;;;26.27;;
13999;SDS011;7075;53.574;10.054;2023-07-29T06:02:25;31.00;;;26.83;;
13999;SDS011;7075;53.574;10.054;2023-07-29T06:04:52;30.53;;;24.73;;
13999;SDS011;7075;53.574;10.054;2023-07-29T06:07:17;27.37;;;23.17;;
13999;SDS011;7075;53.574;10.054;2023-07-29T06:09:44;26.90;;;22.67;;
13999;SDS011;7075;53.574;10.054;2023-07-29T06:12:11;23.00;;;20.37;;
13999;SDS011;7075;53.574;10.054;2023-07-29T06:14:36;21.27;;;18.97;;
13999;SDS011;7075;53.574;10.054;2023-07-29T06:17:03;22.10;;;17.50;;
13999;SDS011;7075;53.574;10.054;2023-07-29T06:19:30;19.50;;;17.13;;
13999;SDS011;7075;53.574;10.054;2023-07-29T06:21:56;19.47;;;17.50;;
13999;SDS011;7075;53.574;10.054;2023-07-29T06:24:23;18.47;;;16.07;;
13999;SDS011;7075;53.574;10.054;2023-07-29T06:26:49;14.60;;;13.10;;
13999;SDS011;7075;53.574;10.054;2023-07-29T06:29:16;22.40;;;17.00;;
13999;SDS011;7075;53.574;10.054;2023-07-29T06:31:43;17.90;;;16.00;;
13999;SDS011;7075;53.574;10.054;2023-07-29T06:34:10;18.00;;;16.10;;
13999;SDS011;7075;53.574;10.054;2023-07-29T06:36:36;18.53;;;16.33;;
13999;SDS011;7075;53.574;10.054;2023-07-29T06:39:01;15.67;;;13.97;;
13999;SDS011;7075;53.574;10.054;2023-07-29T06:41:27;19.53;;;17.23;;
13999;SDS011;7075;53.574;10.054;2023-07-29T06:43:53;16.27;;;14.63;;
13999;SDS011;7075;53.574;10.054;2023-07-29T06:46:20;16.67;;;14.40;;
13999;SDS011;7075;53.574;10.054;2023-07-29T06:48:51;16.67;;;14.93;;
13999;SDS011;7075;53.574;10.054;2023-07-29T06:51:17;15.57;;;13.70;;
13999;SDS011;7075;53.574;10.054;2023-07-29T06:53:45;12.87;;;11.57;;
13999;SDS011;7075;53.574;10.054;2023-07-29T06:56:10;19.37;;;16.23;;
13999;SDS011;7075;53.574;10.054;2023-07-29T06:58:37;17.30;;;15.37;;
13999;SDS011;7075;53.574;10.054;2023-07-29T07:01:04;13.57;;;11.87;;
13999;SDS011;7075;53.574;10.054;2023-07-29T07:03:30;20.03;;;16.37;;
13999;SDS011;7075;53.574;10.054;2023-07-29T07:05:57;17.47;;;15.77;;
13999;SDS011;7075;53.574;10.054;2023-07-29T07:08:23;17.63;;;15.47;;
13999;SDS011;7075;53.574;10.054;2023-07-29T07:10:49;18.43;;;16.43;;
13999;SDS011;7075;53.574;10.054;2023-07-29T07:13:15;17.93;;;15.80;;
13999;SDS011;7075;53.574;10.054;2023-07-29T07:15:40;16.63;;;14.83;;
13999;SDS011;7075;53.574;10.054;2023-07-29T07:18:06;17.43;;;15.53;;
13999;SDS011;7075;53.574;10.054;2023-07-29T07:20:32;18.80;;;16.40;;
13999;SDS011;7075;53.574;10.054;2023-07-29T07:22:59;18.43;;;15.77;;
13999;SDS011;7075;53.574;10.054;2023-07-29T07:25:24;23.83;;;16.53;;
13999;SDS011;7075;53.574;10.054;2023-07-29T07:27:50;24.17;;;17.07;;
13999;SDS011;7075;53.574;10.054;2023-07-29T07:30:17;18.30;;;16.37;;
13999;SDS011;7075;53.574;10.054;2023-07-29T07:32:44;18.40;;;15.27;;
13999;SDS011;7075;53.574;10.054;2023-07-29T07:35:11;18.53;;;16.13;;
13999;SDS011;7075;53.574;10.054;2023-07-29T07:37:39;17.73;;;15.83;;
13999;SDS011;7075;53.574;10.054;2023-07-29T07:40:06;18.63;;;16.63;;
13999;SDS011;7075;53.574;10.054;2023-07-29T07:42:32;17.80;;;15.57;;
13999;SDS011;7075;53.574;10.054;2023-07-29T07:44:59;18.37;;;15.53;;
13999;SDS011;7075;53.574;10.054;2023-07-29T07:47:25;18.67;;;15.80;;
13999;SDS011;7075;53.574;10.054;2023-07-29T07:49:50;18.43;;;14.97;;
13999;SDS011;7075;53.574;10.054;2023-07-29T07:52:17;16.20;;;14.13;;
13999;SDS011;7075;53.574;10.054;2023-07-29T07:54:44;16.20;;;13.57;;
13999;SDS011;7075;53.574;10.054;2023-07-29T07:57:10;15.30;;;13.03;;
13999;SDS011;7075;53.574;10.054;2023-07-29T07:59:38;14.50;;;12.33;;
13999;SDS011;7075;53.574;10.054;2023-07-29T08:02:05;12.87;;;11.57;;
13999;SDS011;7075;53.574;10.054;2023-07-29T08:04:34;13.23;;;11.83;;
13999;SDS011;7075;53.574;10.054;2023-07-29T08:06:59;13.87;;;12.13;;
13999;SDS011;7075;53.574;10.054;2023-07-29T08:09:25;16.17;;;11.90;;
13999;SDS011;7075;53.574;10.054;2023-07-29T08:11:52;14.73;;;11.87;;
13999;SDS011;7075;53.574;10.054;2023-07-29T08:14:18;12.47;;;11.17;;
13999;SDS011;7075;53.574;10.054;2023-07-29T08:16:44;14.73;;;12.47;;
13999;SDS011;7075;53.574;10.054;2023-07-29T08:19:11;13.03;;;11.67;;
13999;SDS011;7075;53.574;10.054;2023-07-29T08:21:36;12.70;;;11.40;;
13999;SDS011;7075;53.574;10.054;2023-07-29T08:24:02;11.93;;;10.40;;
13999;SDS011;7075;53.574;10.054;2023-07-29T08:26:28;13.03;;;10.73;;
13999;SDS011;7075;53.574;10.054;2023-07-29T08:28:55;12.60;;;11.30;;
13999;SDS011;7075;53.574;10.054;2023-07-29T08:31:22;14.53;;;11.57;;
13999;SDS011;7075;53.574;10.054;2023-07-29T08:33:47;11.57;;;10.47;;
13999;SDS011;7075;53.574;10.054;2023-07-29T08:36:14;12.23;;;10.97;;
13999;SDS011;7075;53.574;10.054;2023-07-29T08:38:41;11.00;;;10.00;;
13999;SDS011;7075;53.574;10.054;2023-07-29T08:41:14;11.60;;;10.33;;
13999;SDS011;7075;53.574;10.054;2023-07-29T08:43:50;12.60;;;11.27;;
13999;SDS011;7075;53.574;10.054;2023-07-29T08:46:22;12.67;;;10.30;;
13999;SDS011;7075;53.574;10.054;2023-07-29T08:48:48;12.40;;;11.07;;
13999;SDS011;7075;53.574;10.054;2023-07-29T08:51:17;12.50;;;11.20;;
13999;SDS011;7075;53.574;10.054;2023-07-29T08:53:45;12.70;;;11.47;;
13999;SDS011;7075;53.574;10.054;2023-07-29T08:56:11;13.00;;;11.70;;
13999;SDS011;7075;53.574;10.054;2023-07-29T08:58:38;12.13;;;11.00;;
13999;SDS011;7075;53.574;10.054;2023-07-29T09:01:05;11.23;;;10.13;;
13999;SDS011;7075;53.574;10.054;2023-07-29T09:03:31;12.47;;;11.10;;
13999;SDS011;7075;53.574;10.054;2023-07-29T09:05:58;13.33;;;11.87;;
13999;SDS011;7075;53.574;10.054;2023-07-29T09:08:28;13.97;;;11.63;;
13999;SDS011;7075;53.574;10.054;2023-07-29T09:10:55;11.90;;;10.63;;
13999;SDS011;7075;53.574;10.054;2023-07-29T09:13:22;13.23;;;11.27;;
13999;SDS011;7075;53.574;10.054;2023-07-29T09:15:49;11.60;;;10.50;;
13999;SDS011;7075;53.574;10.054;2023-07-29T09:18:23;12.00;;;10.73;;
13999;SDS011;7075;53.574;10.054;2023-07-29T09:20:52;11.47;;;10.00;;
13999;SDS011;7075;53.574;10.054;2023-07-29T09:23:18;11.20;;;10.20;;
13999;SDS011;7075;53.574;10.054;2023-07-29T09:25:48;15.33;;;11.33;;
13999;SDS011;7075;53.574;10.054;2023-07-29T09:28:15;13.40;;;11.30;;
13999;SDS011;7075;53.574;10.054;2023-07-29T09:30:44;10.97;;;9.77;;
13999;SDS011;7075;53.574;10.054;2023-07-29T09:33:11;10.67;;;9.63;;
13999;SDS011;7075;53.574;10.054;2023-07-29T09:35:39;11.50;;;10.27;;
13999;SDS011;7075;53.574;10.054;2023-07-29T09:38:06;11.33;;;10.33;;
13999;SDS011;7075;53.574;10.054;2023-07-29T09:40:35;11.83;;;9.63;;
13999;SDS011;7075;53.574;10.054;2023-07-29T09:43:04;10.27;;;9.13;;
13999;SDS011;7075;53.574;10.054;2023-07-29T09:45:30;8.70;;;7.53;;
13999;SDS011;7075;53.574;10.054;2023-07-29T09:47:59;10.63;;;8.90;;
13999;SDS011;7075;53.574;10.054;2023-07-29T09:50:26;11.80;;;8.73;;
13999;SDS011;7075;53.574;10.054;2023-07-29T09:52:54;8.63;;;7.73;;
13999;SDS011;7075;53.574;10.054;2023-07-29T09:55:24;10.10;;;8.13;;
13999;SDS011;7075;53.574;10.054;2023-07-29T09:57:59;9.70;;;8.20;;
13999;SDS011;7075;53.574;10.054;2023-07-29T10:00:30;9.17;;;8.27;;
13999;SDS011;7075;53.574;10.054;2023-07-29T10:02:58;8.23;;;7.47;;
13999;SDS011;7075;53.574;10.054;2023-07-29T10:05:28;11.83;;;6.57;;
13999;SDS011;7075;53.574;10.054;2023-07-29T10:07:54;8.50;;;5.37;;
13999;SDS011;7075;53.574;10.054;2023-07-29T10:10:21;6.73;;;6.10;;
13999;SDS011;7075;53.574;10.054;2023-07-29T10:12:47;5.93;;;5.33;;
13999;SDS011;7075;53.574;10.054;2023-07-29T10:15:13;7.67;;;5.77;;
13999;SDS011;7075;53.574;10.054;2023-07-29T10:17:39;6.67;;;6.03;;
13999;SDS011;7075;53.574;10.054;2023-07-29T10:20:05;5.40;;;4.67;;
13999;SDS011;7075;53.574;10.054;2023-07-29T10:22:34;5.17;;;4.73;;
13999;SDS011;7075;53.574;10.054;2023-07-29T10:25:29;4.50;;;4.10;;
13999;SDS011;7075;53.574;10.054;2023-07-29T10:28:02;6.33;;;4.30;;
13999;SDS011;7075;53.574;10.054;2023-07-29T10:30:31;4.40;;;4.00;;
13999;SDS011;7075;53.574;10.054;2023-07-29T10:32:58;5.70;;;4.63;;
13999;SDS011;7075;53.574;10.054;2023-07-29T10:35:29;5.03;;;3.93;;
13999;SDS011;7075;53.574;10.054;2023-07-29T10:37:57;4.53;;;4.13;;
13999;SDS011;7075;53.574;10.054;2023-07-29T10:40:23;5.33;;;4.07;;
13999;SDS011;7075;53.574;10.054;2023-07-29T10:43:51;3.40;;;3.10;;
13999;SDS011;7075;53.574;10.054;2023-07-29T10:45:50;3.77;;;3.47;;
13999;SDS011;7075;53.574;10.054;2023-07-29T10:53:59;4.40;;;3.50;;
13999;SDS011;7075;53.574;10.054;2023-07-29T10:56:32;4.40;;;3.20;;
13999;SDS011;7075;53.574;10.054;2023-07-29T10:59:00;4.43;;;3.40;;
13999;SDS011;7075;53.574;10.054;2023-07-29T11:01:56;3.37;;;3.07;;
13999;SDS011;7075;53.574;10.054;2023-07-29T11:04:50;3.23;;;2.93;;
13999;SDS011;7075;53.574;10.054;2023-07-29T11:15:02;3.60;;;2.57;;
13999;SDS011;7075;53.574;10.054;2023-07-29T11:20:27;3.70;;;2.70;;
13999;SDS011;7075;53.574;10.054;2023-07-29T11:22:54;2.67;;;2.47;;
13999;SDS011;7075;53.574;10.054;2023-07-29T11:25:21;3.47;;;3.17;;
13999;SDS011;7075;53.574;10.054;2023-07-29T11:27:48;4.90;;;3.43;;
13999;SDS011;7075;53.574;10.054;2023-07-29T11:30:15;2.70;;;2.23;;
13999;SDS011;7075;53.574;10.054;2023-07-29T11:32:42;2.93;;;2.20;;
13999;SDS011;7075;53.574;10.054;2023-07-29T11:35:14;4.50;;;2.00;;
13999;SDS011;7075;53.574;10.054;2023-07-29T11:37:46;3.20;;;2.27;;
13999;SDS011;7075;53.574;10.054;2023-07-29T11:40:15;2.20;;;2.00;;
13999;SDS011;7075;53.574;10.054;2023-07-29T11:42:45;2.30;;;2.10;;
13999;SDS011;7075;53.574;10.054;2023-07-29T11:45:13;2.43;;;2.10;;
13999;SDS011;7075;53.574;10.054;2023-07-29T11:47:39;4.13;;;2.33;;
13999;SDS011;7075;53.574;10.054;2023-07-29T11:50:06;2.38;;;2.15;;
13999;SDS011;7075;53.574;10.054;2023-07-29T11:52:36;4.65;;;2.03;;
13999;SDS011;7075;53.574;10.054;2023-07-29T11:55:04;3.85;;;2.40;;
13999;SDS011;7075;53.574;10.054;2023-07-29T11:57:32;3.05;;;2.33;;
13999;SDS011;7075;53.574;10.054;2023-07-29T12:00:04;2.40;;;2.20;;
13999;SDS011;7075;53.574;10.054;2023-07-29T12:02:32;4.63;;;2.60;;
13999;SDS011;7075;53.574;10.054;2023-07-29T12:04:59;2.47;;;2.05;;
13999;SDS011;7075;53.574;10.054;2023-07-29T12:07:25;2.28;;;2.08;;
13999;SDS011;7075;53.574;10.054;2023-07-29T12:09:51;3.58;;;2.22;;
13999;SDS011;7075;53.574;10.054;2023-07-29T12:12:17;2.42;;;2.22;;
13999;SDS011;7075;53.574;10.054;2023-07-29T12:14:44;3.08;;;2.53;;
13999;SDS011;7075;53.574;10.054;2023-07-29T12:17:12;2.70;;;2.50;;
13999;SDS011;7075;53.574;10.054;2023-07-29T12:19:38;2.45;;;2.25;;
13999;SDS011;7075;53.574;10.054;2023-07-29T12:22:06;2.38;;;2.17;;
13999;SDS011;7075;53.574;10.054;2023-07-29T12:24:32;3.15;;;2.20;;
13999;SDS011;7075;53.574;10.054;2023-07-29T12:27:00;3.85;;;2.20;;
13999;SDS011;7075;53.574;10.054;2023-07-29T12:29:26;4.55;;;2.20;;
13999;SDS011;7075;53.574;10.054;2023-07-29T12:31:59;2.40;;;2.10;;
13999;SDS011;7075;53.574;10.054;2023-07-29T12:34:29;2.00;;;1.73;;
13999;SDS011;7075;53.574;10.054;2023-07-29T12:36:56;2.70;;;2.20;;
13999;SDS011;7075;53.574;10.054;2023-07-29T12:39:29;2.10;;;1.88;;
13999;SDS011;7075;53.574;10.054;2023-07-29T12:41:57;1.88;;;1.77;;
13999;SDS011;7075;53.574;10.054;2023-07-29T12:44:24;2.50;;;1.63;;
13999;SDS011;7075;53.574;10.054;2023-07-29T12:46:50;1.73;;;1.63;;
13999;SDS011;7075;53.574;10.054;2023-07-29T12:49:16;4.28;;;1.73;;
13999;SDS011;7075;53.574;10.054;2023-07-29T12:51:42;1.70;;;1.60;;
13999;SDS011;7075;53.574;10.054;2023-07-29T12:54:08;1.65;;;1.55;;
13999;SDS011;7075;53.574;10.054;2023-07-29T12:56:33;1.52;;;1.42;;
13999;SDS011;7075;53.574;10.054;2023-07-29T12:58:59;1.55;;;1.30;;
13999;SDS011;7075;53.574;10.054;2023-07-29T13:01:25;1.65;;;1.55;;
13999;SDS011;7075;53.574;10.054;2023-07-29T13:03:52;1.38;;;1.27;;
13999;SDS011;7075;53.574;10.054;2023-07-29T13:06:17;2.10;;;1.60;;
13999;SDS011;7075;53.574;10.054;2023-07-29T13:08:43;2.85;;;1.75;;
13999;SDS011;7075;53.574;10.054;2023-07-29T13:11:10;6.60;;;1.48;;
13999;SDS011;7075;53.574;10.054;2023-07-29T13:13:35;1.95;;;1.45;;
13999;SDS011;7075;53.574;10.054;2023-07-29T13:16:01;1.52;;;1.30;;
13999;SDS011;7075;53.574;10.054;2023-07-29T13:18:27;2.25;;;1.48;;
13999;SDS011;7075;53.574;10.054;2023-07-29T13:20:53;1.65;;;1.20;;
13999;SDS011;7075;53.574;10.054;2023-07-29T13:23:19;3.45;;;1.40;;
13999;SDS011;7075;53.574;10.054;2023-07-29T13:25:44;1.88;;;1.65;;
13999;SDS011;7075;53.574;10.054;2023-07-29T13:28:10;1.60;;;1.50;;
13999;SDS011;7075;53.574;10.054;2023-07-29T13:30:38;1.83;;;1.60;;
13999;SDS011;7075;53.574;10.054;2023-07-29T13:33:07;2.47;;;1.30;;
13999;SDS011;7075;53.574;10.054;2023-07-29T13:35:34;2.30;;;1.75;;
13999;SDS011;7075;53.574;10.054;2023-07-29T13:38:03;2.30;;;1.80;;
13999;SDS011;7075;53.574;10.054;2023-07-29T13:40:28;1.50;;;1.40;;
13999;SDS011;7075;53.574;10.054;2023-07-29T13:42:54;2.10;;;1.70;;
13999;SDS011;7075;53.574;10.054;2023-07-29T13:45:21;2.60;;;1.40;;
13999;SDS011;7075;53.574;10.054;2023-07-29T13:47:47;1.40;;;1.30;;
13999;SDS011;7075;53.574;10.054;2023-07-29T13:50:14;4.13;;;2.17;;
13999;SDS011;7075;53.574;10.054;2023-07-29T13:52:41;1.50;;;1.20;;
13999;SDS011;7075;53.574;10.054;2023-07-29T13:55:07;2.33;;;1.85;;
13999;SDS011;7075;53.574;10.054;2023-07-29T13:57:33;1.80;;;1.70;;
13999;SDS011;7075;53.574;10.054;2023-07-29T14:00:00;1.70;;;1.60;;
13999;SDS011;7075;53.574;10.054;2023-07-29T14:02:25;3.13;;;1.63;;
13999;SDS011;7075;53.574;10.054;2023-07-29T14:04:51;1.30;;;1.20;;
13999;SDS011;7075;53.574;10.054;2023-07-29T14:07:17;2.40;;;1.60;;
13999;SDS011;7075;53.574;10.054;2023-07-29T14:09:43;1.80;;;1.70;;
13999;SDS011;7075;53.574;10.054;2023-07-29T14:12:10;2.53;;;2.03;;
13999;SDS011;7075;53.574;10.054;2023-07-29T14:14:38;2.30;;;1.70;;
13999;SDS011;7075;53.574;10.054;2023-07-29T14:17:04;1.67;;;1.40;;
13999;SDS011;7075;53.574;10.054;2023-07-29T14:19:31;2.47;;;1.40;;
13999;SDS011;7075;53.574;10.054;2023-07-29T14:21:56;2.33;;;1.70;;
13999;SDS011;7075;53.574;10.054;2023-07-29T14:24:26;1.98;;;1.50;;
13999;SDS011;7075;53.574;10.054;2023-07-29T14:26:52;1.52;;;1.42;;
13999;SDS011;7075;53.574;10.054;2023-07-29T14:29:19;1.75;;;1.65;;
13999;SDS011;7075;53.574;10.054;2023-07-29T14:31:45;1.95;;;1.48;;
13999;SDS011;7075;53.574;10.054;2023-07-29T14:34:11;1.58;;;1.35;;
13999;SDS011;7075;53.574;10.054;2023-07-29T14:36:37;6.40;;;1.80;;
13999;SDS011;7075;53.574;10.054;2023-07-29T14:39:03;4.25;;;2.08;;
13999;SDS011;7075;53.574;10.054;2023-07-29T14:41:29;2.70;;;1.65;;
13999;SDS011;7075;53.574;10.054;2023-07-29T14:43:55;1.70;;;1.50;;
13999;SDS011;7075;53.574;10.054;2023-07-29T14:46:21;2.65;;;1.67;;
13999;SDS011;7075;53.574;10.054;2023-07-29T14:48:46;4.97;;;1.45;;
13999;SDS011;7075;53.574;10.054;2023-07-29T14:51:12;1.75;;;1.63;;
13999;SDS011;7075;53.574;10.054;2023-07-29T14:53:38;1.90;;;1.70;;
13999;SDS011;7075;53.574;10.054;2023-07-29T14:56:03;2.15;;;1.83;;
13999;SDS011;7075;53.574;10.054;2023-07-29T14:58:30;1.83;;;1.63;;
13999;SDS011;7075;53.574;10.054;2023-07-29T15:00:55;1.90;;;1.60;;
13999;SDS011;7075;53.574;10.054;2023-07-29T15:03:21;1.58;;;1.35;;
13999;SDS011;7075;53.574;10.054;2023-07-29T15:05:48;1.70;;;1.60;;